Hauptseite
METAR-TAF:

METAR-TAF

Flughäfen :

Flughafen Réunion

Saint-Denis, Réunion

Breite: 20-53S, Länge: 055-31E, Höhe: 21 m

Beobachtung

Neuester Wetterbericht von vor 23 Minuten, um 08:30 UTC
Wind 21 kt aus Ost/Südost
Temperatur 26°C
Luftfeuchtigkeit 58%
Luftdruck 1023 hPa
Sichtweite 10 km oder mehr
Durchbrochene Bewölkung in der Höhe von 7000 ft

METAR: FMEE 170830Z AUTO 11021KT 9999 BKN070 26/17 Q1023 BECMG 11025G35KT

Zeit: 12:53 (08:53 UTC)

Prognose

Neuester Wetterbericht von vor 3 Stunden und 53 Minuten, um 05:00 UTC
Gültige Prognose vom 17 um 06 UTC bis 18 um 12 UTC
Wind 25 kt aus Ost/Südost, Böen bis zu 35 kt
Sichtweite 10 km oder mehr
Aufgelockert bewölkt in der Höhe von 5000 ft
Übergehend zu
vom 17 um 15 UTC bis 17 um 17 UTC
Wind 12 kt aus Ost/Südost

TAF: FMEE 170500Z 1706/1812 11025G35KT 9999 SCT050 BECMG 1715/1717 12012KT

Wetterbeobachtungen und Prognosen von mehr als 4000 Flughäfen (METAR und TAF Bericht).

Die verfügbaren Stationen werden durch gelbe und rote Markierungen auf der Karte dargestellt.

Führen Sie die Maus auf sie, um den Namen der Station zu sehen.

Darauf klicken, um die Beobachtung von Wetterbeobachtungen und Prognosen zu sehen.

Um die Karte zu ändern : klicken Sie auf den grünen Tasten mit einem schwarzen Kreuz Zum Vergrößern, auf den grünen Button mit einem Gedankenstrich zu verkleinern, oder auf die grünen Pfeile für benachbarte Karten.


METAR-TAF: